sensor_id;sensor_type;location;lat;lon;timestamp;temperature;humidity
72772;SHT30;60894;42.544;1.516;2022-12-10T00:01:04;5.87;83.36
72772;SHT30;60894;42.544;1.516;2022-12-10T00:03:31;5.87;83.10
72772;SHT30;60894;42.544;1.516;2022-12-10T00:06:00;5.80;83.51
72772;SHT30;60894;42.544;1.516;2022-12-10T00:08:27;5.83;83.44
72772;SHT30;60894;42.544;1.516;2022-12-10T00:10:55;5.73;83.67
72772;SHT30;60894;42.544;1.516;2022-12-10T00:13:23;5.65;83.70
72772;SHT30;60894;42.544;1.516;2022-12-10T00:15:50;5.66;83.57
72772;SHT30;60894;42.544;1.516;2022-12-10T00:18:18;5.65;83.65
72772;SHT30;60894;42.544;1.516;2022-12-10T00:20:45;5.76;83.67
72772;SHT30;60894;42.544;1.516;2022-12-10T00:23:15;5.76;83.69
72772;SHT30;60894;42.544;1.516;2022-12-10T00:25:42;5.71;83.44
72772;SHT30;60894;42.544;1.516;2022-12-10T00:28:10;5.63;83.63
72772;SHT30;60894;42.544;1.516;2022-12-10T00:30:37;5.71;83.77
72772;SHT30;60894;42.544;1.516;2022-12-10T00:33:04;5.69;83.58
72772;SHT30;60894;42.544;1.516;2022-12-10T00:35:35;5.66;83.56
72772;SHT30;60894;42.544;1.516;2022-12-10T00:38:02;5.65;83.64
72772;SHT30;60894;42.544;1.516;2022-12-10T00:40:29;5.63;82.73
72772;SHT30;60894;42.544;1.516;2022-12-10T00:42:56;5.55;82.97
72772;SHT30;60894;42.544;1.516;2022-12-10T00:45:25;5.45;83.51
72772;SHT30;60894;42.544;1.516;2022-12-10T00:47:52;5.45;83.84
72772;SHT30;60894;42.544;1.516;2022-12-10T00:50:19;5.49;83.73
72772;SHT30;60894;42.544;1.516;2022-12-10T00:52:46;5.50;83.68
72772;SHT30;60894;42.544;1.516;2022-12-10T00:55:13;5.49;83.65
72772;SHT30;60894;42.544;1.516;2022-12-10T00:57:40;5.39;83.79
72772;SHT30;60894;42.544;1.516;2022-12-10T01:00:08;5.32;83.82
72772;SHT30;60894;42.544;1.516;2022-12-10T01:02:36;5.35;83.68
72772;SHT30;60894;42.544;1.516;2022-12-10T01:05:04;5.36;83.38
72772;SHT30;60894;42.544;1.516;2022-12-10T01:07:31;5.34;84.11
72772;SHT30;60894;42.544;1.516;2022-12-10T01:09:58;5.35;84.29
72772;SHT30;60894;42.544;1.516;2022-12-10T01:12:25;5.35;84.41
72772;SHT30;60894;42.544;1.516;2022-12-10T01:14:52;5.35;84.04
72772;SHT30;60894;42.544;1.516;2022-12-10T01:17:19;5.31;84.52
72772;SHT30;60894;42.544;1.516;2022-12-10T01:19:48;5.28;84.23
72772;SHT30;60894;42.544;1.516;2022-12-10T01:22:15;5.35;84.12
72772;SHT30;60894;42.544;1.516;2022-12-10T01:24:42;5.32;84.09
72772;SHT30;60894;42.544;1.516;2022-12-10T01:27:09;5.36;84.15
72772;SHT30;60894;42.544;1.516;2022-12-10T01:29:36;5.39;84.19
72772;SHT30;60894;42.544;1.516;2022-12-10T01:32:03;5.34;84.24
72772;SHT30;60894;42.544;1.516;2022-12-10T01:34:30;5.31;84.47
72772;SHT30;60894;42.544;1.516;2022-12-10T01:36:59;5.28;84.38
72772;SHT30;60894;42.544;1.516;2022-12-10T01:39:26;5.24;84.42
72772;SHT30;60894;42.544;1.516;2022-12-10T01:41:54;5.24;84.47
72772;SHT30;60894;42.544;1.516;2022-12-10T01:47:38;5.26;84.80
72772;SHT30;60894;42.544;1.516;2022-12-10T01:50:06;5.31;84.26
72772;SHT30;60894;42.544;1.516;2022-12-10T01:52:35;5.22;84.36
72772;SHT30;60894;42.544;1.516;2022-12-10T01:55:08;5.24;84.67
72772;SHT30;60894;42.544;1.516;2022-12-10T01:57:55;5.18;84.47
72772;SHT30;60894;42.544;1.516;2022-12-10T02:00:23;5.19;84.96
72772;SHT30;60894;42.544;1.516;2022-12-10T02:02:55;5.21;84.61
72772;SHT30;60894;42.544;1.516;2022-12-10T02:05:30;5.24;84.73
72772;SHT30;60894;42.544;1.516;2022-12-10T02:08:05;5.16;84.59
72772;SHT30;60894;42.544;1.516;2022-12-10T02:10:43;5.12;84.60
72772;SHT30;60894;42.544;1.516;2022-12-10T02:13:18;5.14;84.66
72772;SHT30;60894;42.544;1.516;2022-12-10T02:15:50;5.14;84.89
72772;SHT30;60894;42.544;1.516;2022-12-10T02:18:21;5.16;84.91
72772;SHT30;60894;42.544;1.516;2022-12-10T02:20:53;5.16;85.22
72772;SHT30;60894;42.544;1.516;2022-12-10T02:23:26;5.15;84.76
72772;SHT30;60894;42.544;1.516;2022-12-10T02:25:58;5.14;85.16
72772;SHT30;60894;42.544;1.516;2022-12-10T02:28:32;5.22;84.12
72772;SHT30;60894;42.544;1.516;2022-12-10T02:31:02;5.21;84.69
72772;SHT30;60894;42.544;1.516;2022-12-10T02:33:31;5.18;84.68
72772;SHT30;60894;42.544;1.516;2022-12-10T02:36:01;5.12;85.43
72772;SHT30;60894;42.544;1.516;2022-12-10T02:38:31;5.12;85.01
72772;SHT30;60894;42.544;1.516;2022-12-10T02:41:01;5.11;84.80
72772;SHT30;60894;42.544;1.516;2022-12-10T02:43:30;5.08;85.11
72772;SHT30;60894;42.544;1.516;2022-12-10T02:45:58;5.02;85.20
72772;SHT30;60894;42.544;1.516;2022-12-10T02:48:27;5.01;85.38
72772;SHT30;60894;42.544;1.516;2022-12-10T02:50:55;5.07;85.67
72772;SHT30;60894;42.544;1.516;2022-12-10T02:53:22;5.01;85.45
72772;SHT30;60894;42.544;1.516;2022-12-10T02:55:57;5.11;85.52
72772;SHT30;60894;42.544;1.516;2022-12-10T02:58:36;5.14;85.05
72772;SHT30;60894;42.544;1.516;2022-12-10T03:01:11;5.15;84.75
72772;SHT30;60894;42.544;1.516;2022-12-10T03:03:45;5.02;85.07
72772;SHT30;60894;42.544;1.516;2022-12-10T03:06:18;4.95;85.78
72772;SHT30;60894;42.544;1.516;2022-12-10T03:08:49;4.98;85.52
72772;SHT30;60894;42.544;1.516;2022-12-10T03:11:19;5.02;85.41
72772;SHT30;60894;42.544;1.516;2022-12-10T03:13:53;4.98;85.26
72772;SHT30;60894;42.544;1.516;2022-12-10T03:16:22;4.91;85.32
72772;SHT30;60894;42.544;1.516;2022-12-10T03:18:56;4.89;85.12
72772;SHT30;60894;42.544;1.516;2022-12-10T03:21:25;4.87;85.50
72772;SHT30;60894;42.544;1.516;2022-12-10T03:23:53;4.89;85.55
72772;SHT30;60894;42.544;1.516;2022-12-10T03:26:21;4.91;85.97
72772;SHT30;60894;42.544;1.516;2022-12-10T03:28:50;4.98;85.31
72772;SHT30;60894;42.544;1.516;2022-12-10T03:31:19;4.89;84.82
72772;SHT30;60894;42.544;1.516;2022-12-10T03:33:47;5.01;84.90
72772;SHT30;60894;42.544;1.516;2022-12-10T03:36:17;4.89;84.19
72772;SHT30;60894;42.544;1.516;2022-12-10T03:38:45;4.78;84.68
72772;SHT30;60894;42.544;1.516;2022-12-10T03:41:13;4.75;85.51
72772;SHT30;60894;42.544;1.516;2022-12-10T03:43:50;4.77;85.66
72772;SHT30;60894;42.544;1.516;2022-12-10T03:46:18;4.80;85.05
72772;SHT30;60894;42.544;1.516;2022-12-10T03:48:45;4.81;84.55
72772;SHT30;60894;42.544;1.516;2022-12-10T03:51:12;4.70;83.11
72772;SHT30;60894;42.544;1.516;2022-12-10T03:53:42;4.60;83.10
72772;SHT30;60894;42.544;1.516;2022-12-10T03:56:09;4.65;84.19
72772;SHT30;60894;42.544;1.516;2022-12-10T03:58:36;4.64;84.83
72772;SHT30;60894;42.544;1.516;2022-12-10T04:01:03;4.71;84.54
72772;SHT30;60894;42.544;1.516;2022-12-10T04:03:33;4.67;85.02
72772;SHT30;60894;42.544;1.516;2022-12-10T04:06:01;4.73;84.97
72772;SHT30;60894;42.544;1.516;2022-12-10T04:08:29;4.71;84.51
72772;SHT30;60894;42.544;1.516;2022-12-10T04:11:03;4.71;84.70
72772;SHT30;60894;42.544;1.516;2022-12-10T04:13:32;4.68;84.22
72772;SHT30;60894;42.544;1.516;2022-12-10T04:16:16;4.73;83.82
72772;SHT30;60894;42.544;1.516;2022-12-10T04:18:58;4.71;84.36
72772;SHT30;60894;42.544;1.516;2022-12-10T04:21:25;4.58;84.52
72772;SHT30;60894;42.544;1.516;2022-12-10T04:24:11;4.60;84.68
72772;SHT30;60894;42.544;1.516;2022-12-10T04:26:59;4.54;84.21
72772;SHT30;60894;42.544;1.516;2022-12-10T04:29:29;4.50;84.71
72772;SHT30;60894;42.544;1.516;2022-12-10T04:31:57;4.54;84.83
72772;SHT30;60894;42.544;1.516;2022-12-10T04:34:24;4.50;84.42
72772;SHT30;60894;42.544;1.516;2022-12-10T04:36:52;4.58;84.64
72772;SHT30;60894;42.544;1.516;2022-12-10T04:39:19;4.52;84.71
72772;SHT30;60894;42.544;1.516;2022-12-10T04:41:48;4.49;84.98
72772;SHT30;60894;42.544;1.516;2022-12-10T04:44:17;4.46;84.93
72772;SHT30;60894;42.544;1.516;2022-12-10T04:46:45;4.42;84.81
72772;SHT30;60894;42.544;1.516;2022-12-10T04:49:12;4.46;84.67
72772;SHT30;60894;42.544;1.516;2022-12-10T04:51:40;4.43;84.42
72772;SHT30;60894;42.544;1.516;2022-12-10T04:54:08;4.43;84.39
72772;SHT30;60894;42.544;1.516;2022-12-10T04:56:35;4.44;84.12
72772;SHT30;60894;42.544;1.516;2022-12-10T04:59:03;4.49;84.16
72772;SHT30;60894;42.544;1.516;2022-12-10T05:01:32;4.50;84.06
72772;SHT30;60894;42.544;1.516;2022-12-10T05:04:00;4.42;83.69
72772;SHT30;60894;42.544;1.516;2022-12-10T05:06:28;4.43;84.05
72772;SHT30;60894;42.544;1.516;2022-12-10T05:08:55;4.40;84.09
72772;SHT30;60894;42.544;1.516;2022-12-10T05:11:25;4.37;84.23
72772;SHT30;60894;42.544;1.516;2022-12-10T05:13:53;4.33;84.08
72772;SHT30;60894;42.544;1.516;2022-12-10T05:16:22;4.37;83.71
72772;SHT30;60894;42.544;1.516;2022-12-10T05:18:52;4.30;83.85
72772;SHT30;60894;42.544;1.516;2022-12-10T05:21:20;4.33;84.30
72772;SHT30;60894;42.544;1.516;2022-12-10T05:23:49;4.24;84.20
72772;SHT30;60894;42.544;1.516;2022-12-10T05:26:17;4.20;84.20
72772;SHT30;60894;42.544;1.516;2022-12-10T05:28:46;4.24;84.39
72772;SHT30;60894;42.544;1.516;2022-12-10T05:31:16;4.17;84.03
72772;SHT30;60894;42.544;1.516;2022-12-10T05:33:43;4.13;84.24
72772;SHT30;60894;42.544;1.516;2022-12-10T05:36:13;4.16;84.69
72772;SHT30;60894;42.544;1.516;2022-12-10T05:38:41;4.20;84.36
72772;SHT30;60894;42.544;1.516;2022-12-10T05:41:11;4.09;84.03
72772;SHT30;60894;42.544;1.516;2022-12-10T05:43:38;3.99;85.00
72772;SHT30;60894;42.544;1.516;2022-12-10T05:46:07;3.92;85.16
72772;SHT30;60894;42.544;1.516;2022-12-10T05:48:36;3.92;84.80
72772;SHT30;60894;42.544;1.516;2022-12-10T05:51:04;3.95;85.04
72772;SHT30;60894;42.544;1.516;2022-12-10T05:53:33;3.95;84.65
72772;SHT30;60894;42.544;1.516;2022-12-10T05:56:00;3.89;84.93
72772;SHT30;60894;42.544;1.516;2022-12-10T05:58:28;3.88;84.76
72772;SHT30;60894;42.544;1.516;2022-12-10T06:00:55;3.75;84.52
72772;SHT30;60894;42.544;1.516;2022-12-10T06:03:23;3.70;85.22
72772;SHT30;60894;42.544;1.516;2022-12-10T06:05:50;3.71;85.03
72772;SHT30;60894;42.544;1.516;2022-12-10T06:08:17;3.78;85.03
72772;SHT30;60894;42.544;1.516;2022-12-10T06:10:45;3.77;84.71
72772;SHT30;60894;42.544;1.516;2022-12-10T06:13:13;3.89;84.30
72772;SHT30;60894;42.544;1.516;2022-12-10T06:15:40;3.84;84.21
72772;SHT30;60894;42.544;1.516;2022-12-10T06:18:08;3.78;84.23
72772;SHT30;60894;42.544;1.516;2022-12-10T06:20:37;3.68;84.52
72772;SHT30;60894;42.544;1.516;2022-12-10T06:23:05;3.70;84.76
72772;SHT30;60894;42.544;1.516;2022-12-10T06:25:32;3.64;84.55
72772;SHT30;60894;42.544;1.516;2022-12-10T06:28:01;3.62;84.60
72772;SHT30;60894;42.544;1.516;2022-12-10T06:30:28;3.61;84.47
72772;SHT30;60894;42.544;1.516;2022-12-10T06:32:55;3.64;83.46
72772;SHT30;60894;42.544;1.516;2022-12-10T06:35:22;3.71;83.63
72772;SHT30;60894;42.544;1.516;2022-12-10T06:37:49;3.60;84.02
72772;SHT30;60894;42.544;1.516;2022-12-10T06:40:17;3.58;83.83
72772;SHT30;60894;42.544;1.516;2022-12-10T06:42:44;3.54;83.52
72772;SHT30;60894;42.544;1.516;2022-12-10T06:45:13;3.47;83.00
72772;SHT30;60894;42.544;1.516;2022-12-10T06:47:40;3.45;83.17
72772;SHT30;60894;42.544;1.516;2022-12-10T06:50:07;3.44;83.54
72772;SHT30;60894;42.544;1.516;2022-12-10T06:52:34;3.34;83.42
72772;SHT30;60894;42.544;1.516;2022-12-10T06:55:01;3.28;83.78
72772;SHT30;60894;42.544;1.516;2022-12-10T06:57:29;3.21;83.87
72772;SHT30;60894;42.544;1.516;2022-12-10T06:59:56;3.16;83.59
72772;SHT30;60894;42.544;1.516;2022-12-10T07:02:24;3.23;83.73
72772;SHT30;60894;42.544;1.516;2022-12-10T07:04:51;3.20;83.16
72772;SHT30;60894;42.544;1.516;2022-12-10T07:07:22;3.17;83.25
72772;SHT30;60894;42.544;1.516;2022-12-10T07:09:49;3.14;84.04
72772;SHT30;60894;42.544;1.516;2022-12-10T07:12:16;3.09;83.96
72772;SHT30;60894;42.544;1.516;2022-12-10T07:14:43;3.03;84.27
72772;SHT30;60894;42.544;1.516;2022-12-10T07:17:10;3.12;83.63
72772;SHT30;60894;42.544;1.516;2022-12-10T07:19:38;3.17;83.27
72772;SHT30;60894;42.544;1.516;2022-12-10T07:22:06;3.07;82.97
72772;SHT30;60894;42.544;1.516;2022-12-10T07:24:33;3.12;82.91
72772;SHT30;60894;42.544;1.516;2022-12-10T07:27:00;3.02;83.27
72772;SHT30;60894;42.544;1.516;2022-12-10T07:29:27;3.00;83.46
72772;SHT30;60894;42.544;1.516;2022-12-10T07:31:54;2.89;83.36
72772;SHT30;60894;42.544;1.516;2022-12-10T07:34:21;2.90;83.31
72772;SHT30;60894;42.544;1.516;2022-12-10T07:36:50;2.93;83.15
72772;SHT30;60894;42.544;1.516;2022-12-10T07:39:17;2.95;83.36
72772;SHT30;60894;42.544;1.516;2022-12-10T07:41:44;2.99;82.87
72772;SHT30;60894;42.544;1.516;2022-12-10T07:44:12;3.00;82.58
72772;SHT30;60894;42.544;1.516;2022-12-10T07:46:39;3.00;82.74
72772;SHT30;60894;42.544;1.516;2022-12-10T07:49:06;2.90;83.00
72772;SHT30;60894;42.544;1.516;2022-12-10T07:51:34;3.02;83.08
72772;SHT30;60894;42.544;1.516;2022-12-10T07:54:02;3.00;83.18
72772;SHT30;60894;42.544;1.516;2022-12-10T07:56:29;2.97;83.11
72772;SHT30;60894;42.544;1.516;2022-12-10T07:58:56;2.90;83.47
72772;SHT30;60894;42.544;1.516;2022-12-10T08:01:25;3.02;83.01
72772;SHT30;60894;42.544;1.516;2022-12-10T08:03:54;3.09;82.12
72772;SHT30;60894;42.544;1.516;2022-12-10T08:06:23;2.97;82.80
72772;SHT30;60894;42.544;1.516;2022-12-10T08:08:50;2.95;82.99
72772;SHT30;60894;42.544;1.516;2022-12-10T08:11:20;3.02;82.78
72772;SHT30;60894;42.544;1.516;2022-12-10T08:13:47;3.02;83.10
72772;SHT30;60894;42.544;1.516;2022-12-10T08:16:18;3.10;83.22
72772;SHT30;60894;42.544;1.516;2022-12-10T08:18:45;3.14;82.96
72772;SHT30;60894;42.544;1.516;2022-12-10T08:21:15;3.23;82.17
72772;SHT30;60894;42.544;1.516;2022-12-10T08:23:43;3.28;82.98
72772;SHT30;60894;42.544;1.516;2022-12-10T08:26:12;3.34;82.40
72772;SHT30;60894;42.544;1.516;2022-12-10T08:28:41;3.47;82.10
72772;SHT30;60894;42.544;1.516;2022-12-10T08:31:09;3.50;81.07
72772;SHT30;60894;42.544;1.516;2022-12-10T08:33:37;3.71;81.32
72772;SHT30;60894;42.544;1.516;2022-12-10T08:36:06;3.79;81.11
72772;SHT30;60894;42.544;1.516;2022-12-10T08:38:33;4.05;81.61
72772;SHT30;60894;42.544;1.516;2022-12-10T08:41:05;4.20;80.50
72772;SHT30;60894;42.544;1.516;2022-12-10T08:43:32;4.36;79.06
72772;SHT30;60894;42.544;1.516;2022-12-10T08:46:01;4.49;78.46
72772;SHT30;60894;42.544;1.516;2022-12-10T08:48:29;4.57;78.67
72772;SHT30;60894;42.544;1.516;2022-12-10T08:50:56;4.65;77.99
72772;SHT30;60894;42.544;1.516;2022-12-10T08:53:23;4.67;77.79
72772;SHT30;60894;42.544;1.516;2022-12-10T08:55:51;4.67;76.67
72772;SHT30;60894;42.544;1.516;2022-12-10T08:58:18;4.74;76.99
72772;SHT30;60894;42.544;1.516;2022-12-10T09:00:46;4.80;76.45
72772;SHT30;60894;42.544;1.516;2022-12-10T09:03:14;4.83;75.99
72772;SHT30;60894;42.544;1.516;2022-12-10T09:05:42;5.02;76.60
72772;SHT30;60894;42.544;1.516;2022-12-10T09:08:09;5.12;75.20
72772;SHT30;60894;42.544;1.516;2022-12-10T09:10:37;5.21;75.22
72772;SHT30;60894;42.544;1.516;2022-12-10T09:13:04;5.29;74.03
72772;SHT30;60894;42.544;1.516;2022-12-10T09:15:31;5.43;74.41
72772;SHT30;60894;42.544;1.516;2022-12-10T09:17:58;5.60;75.55
72772;SHT30;60894;42.544;1.516;2022-12-10T09:20:27;5.77;72.93
72772;SHT30;60894;42.544;1.516;2022-12-10T09:22:54;6.07;74.44
72772;SHT30;60894;42.544;1.516;2022-12-10T09:25:21;6.25;72.39
72772;SHT30;60894;42.544;1.516;2022-12-10T09:27:48;6.49;74.63
72772;SHT30;60894;42.544;1.516;2022-12-10T09:30:16;6.62;74.18
72772;SHT30;60894;42.544;1.516;2022-12-10T09:32:43;6.73;70.69
72772;SHT30;60894;42.544;1.516;2022-12-10T09:35:10;6.89;70.52
72772;SHT30;60894;42.544;1.516;2022-12-10T09:37:38;7.09;69.40
72772;SHT30;60894;42.544;1.516;2022-12-10T09:40:06;7.35;71.19
72772;SHT30;60894;42.544;1.516;2022-12-10T09:42:44;7.58;70.15
72772;SHT30;60894;42.544;1.516;2022-12-10T09:45:20;7.60;68.58
72772;SHT30;60894;42.544;1.516;2022-12-10T09:47:57;7.78;69.17
72772;SHT30;60894;42.544;1.516;2022-12-10T09:50:29;7.68;67.25
72772;SHT30;60894;42.544;1.516;2022-12-10T09:52:59;7.65;67.39
72772;SHT30;60894;42.544;1.516;2022-12-10T09:55:32;7.72;65.71
72772;SHT30;60894;42.544;1.516;2022-12-10T09:58:02;7.92;64.86
72772;SHT30;60894;42.544;1.516;2022-12-10T10:00:33;8.00;61.33
72772;SHT30;60894;42.544;1.516;2022-12-10T10:03:01;8.19;63.54
72772;SHT30;60894;42.544;1.516;2022-12-10T10:05:30;8.46;61.98
72772;SHT30;60894;42.544;1.516;2022-12-10T10:08:01;8.65;59.79
72772;SHT30;60894;42.544;1.516;2022-12-10T10:10:30;8.57;57.55
72772;SHT30;60894;42.544;1.516;2022-12-10T10:13:01;8.81;60.34
72772;SHT30;60894;42.544;1.516;2022-12-10T10:15:39;9.01;57.62
72772;SHT30;60894;42.544;1.516;2022-12-10T10:18:14;9.01;56.82
72772;SHT30;60894;42.544;1.516;2022-12-10T10:20:41;9.21;56.24
72772;SHT30;60894;42.544;1.516;2022-12-10T10:23:12;9.31;55.74
72772;SHT30;60894;42.544;1.516;2022-12-10T10:25:40;8.95;53.55
72772;SHT30;60894;42.544;1.516;2022-12-10T10:28:11;9.29;55.16
72772;SHT30;60894;42.544;1.516;2022-12-10T10:30:41;9.39;53.43
72772;SHT30;60894;42.544;1.516;2022-12-10T10:33:10;9.56;52.64
72772;SHT30;60894;42.544;1.516;2022-12-10T10:35:43;9.54;52.92
72772;SHT30;60894;42.544;1.516;2022-12-10T10:38:18;9.38;52.16
72772;SHT30;60894;42.544;1.516;2022-12-10T10:40:49;9.67;50.98
72772;SHT30;60894;42.544;1.516;2022-12-10T10:43:21;10.14;51.81
72772;SHT30;60894;42.544;1.516;2022-12-10T10:45:52;10.30;49.35
72772;SHT30;60894;42.544;1.516;2022-12-10T10:48:23;10.52;48.34
72772;SHT30;60894;42.544;1.516;2022-12-10T10:50:51;10.59;46.76
72772;SHT30;60894;42.544;1.516;2022-12-10T10:53:40;10.71;45.88
72772;SHT30;60894;42.544;1.516;2022-12-10T10:56:12;11.02;46.84
72772;SHT30;60894;42.544;1.516;2022-12-10T10:58:52;11.13;44.80
72772;SHT30;60894;42.544;1.516;2022-12-10T11:01:20;11.28;45.29
72772;SHT30;60894;42.544;1.516;2022-12-10T11:03:50;11.38;44.04
72772;SHT30;60894;42.544;1.516;2022-12-10T11:06:20;11.74;44.55
72772;SHT30;60894;42.544;1.516;2022-12-10T11:08:57;11.92;42.51
72772;SHT30;60894;42.544;1.516;2022-12-10T11:11:32;11.91;40.58
72772;SHT30;60894;42.544;1.516;2022-12-10T11:14:13;12.04;42.36
72772;SHT30;60894;42.544;1.516;2022-12-10T11:16:41;12.23;41.80
72772;SHT30;60894;42.544;1.516;2022-12-10T11:19:19;12.46;41.26
72772;SHT30;60894;42.544;1.516;2022-12-10T11:21:47;12.67;40.24
72772;SHT30;60894;42.544;1.516;2022-12-10T11:24:18;12.77;39.89
72772;SHT30;60894;42.544;1.516;2022-12-10T11:26:58;12.91;41.48
72772;SHT30;60894;42.544;1.516;2022-12-10T11:29:49;12.97;39.77
72772;SHT30;60894;42.544;1.516;2022-12-10T11:32:39;12.56;42.90
72772;SHT30;60894;42.544;1.516;2022-12-10T11:35:13;12.76;42.82
72772;SHT30;60894;42.544;1.516;2022-12-10T11:37:47;13.01;41.25
72772;SHT30;60894;42.544;1.516;2022-12-10T11:40:36;13.59;41.04
72772;SHT30;60894;42.544;1.516;2022-12-10T11:43:20;13.72;40.04
72772;SHT30;60894;42.544;1.516;2022-12-10T11:45:59;13.52;38.98
72772;SHT30;60894;42.544;1.516;2022-12-10T11:48:38;13.36;33.88
72772;SHT30;60894;42.544;1.516;2022-12-10T11:51:13;13.39;36.30
72772;SHT30;60894;42.544;1.516;2022-12-10T11:54:00;13.17;34.83
72772;SHT30;60894;42.544;1.516;2022-12-10T11:56:31;13.14;28.08
72772;SHT30;60894;42.544;1.516;2022-12-10T11:59:08;12.42;21.31
72772;SHT30;60894;42.544;1.516;2022-12-10T12:01:51;12.49;22.42
72772;SHT30;60894;42.544;1.516;2022-12-10T12:04:33;12.68;24.65
72772;SHT30;60894;42.544;1.516;2022-12-10T12:07:19;12.37;21.35
72772;SHT30;60894;42.544;1.516;2022-12-10T12:13:10;12.11;21.83
72772;SHT30;60894;42.544;1.516;2022-12-10T12:15:40;12.43;22.67
72772;SHT30;60894;42.544;1.516;2022-12-10T12:18:16;12.46;19.03
72772;SHT30;60894;42.544;1.516;2022-12-10T12:20:46;12.72;20.08
72772;SHT30;60894;42.544;1.516;2022-12-10T12:23:19;12.94;21.04
72772;SHT30;60894;42.544;1.516;2022-12-10T12:25:51;12.76;21.74
72772;SHT30;60894;42.544;1.516;2022-12-10T12:28:25;12.40;23.30
72772;SHT30;60894;42.544;1.516;2022-12-10T12:30:58;12.74;26.47
72772;SHT30;60894;42.544;1.516;2022-12-10T12:33:32;12.64;23.00
72772;SHT30;60894;42.544;1.516;2022-12-10T12:36:05;12.97;26.48
72772;SHT30;60894;42.544;1.516;2022-12-10T12:38:41;12.81;23.52
72772;SHT30;60894;42.544;1.516;2022-12-10T12:41:15;12.91;29.72
72772;SHT30;60894;42.544;1.516;2022-12-10T12:43:48;13.25;29.62
72772;SHT30;60894;42.544;1.516;2022-12-10T12:46:20;13.61;30.68
72772;SHT30;60894;42.544;1.516;2022-12-10T12:48:53;13.32;31.64
72772;SHT30;60894;42.544;1.516;2022-12-10T12:51:26;12.88;32.54
72772;SHT30;60894;42.544;1.516;2022-12-10T12:53:54;12.56;34.14
72772;SHT30;60894;42.544;1.516;2022-12-10T12:56:27;13.17;32.25
72772;SHT30;60894;42.544;1.516;2022-12-10T12:59:06;13.49;32.14
72772;SHT30;60894;42.544;1.516;2022-12-10T13:01:40;13.82;30.47
72772;SHT30;60894;42.544;1.516;2022-12-10T13:04:10;13.80;28.63
72772;SHT30;60894;42.544;1.516;2022-12-10T13:06:38;13.42;29.48
72772;SHT30;60894;42.544;1.516;2022-12-10T13:09:24;13.73;27.72
72772;SHT30;60894;42.544;1.516;2022-12-10T13:12:18;13.51;30.88
72772;SHT30;60894;42.544;1.516;2022-12-10T13:15:13;13.00;28.89
72772;SHT30;60894;42.544;1.516;2022-12-10T13:18:03;12.60;30.76
72772;SHT30;60894;42.544;1.516;2022-12-10T13:20:33;12.84;29.39
72772;SHT30;60894;42.544;1.516;2022-12-10T13:23:02;13.41;30.29
72772;SHT30;60894;42.544;1.516;2022-12-10T13:25:55;13.63;28.42
72772;SHT30;60894;42.544;1.516;2022-12-10T13:28:29;13.91;30.28
72772;SHT30;60894;42.544;1.516;2022-12-10T13:31:21;13.72;27.45
72772;SHT30;60894;42.544;1.516;2022-12-10T13:33:52;13.54;29.34
72772;SHT30;60894;42.544;1.516;2022-12-10T13:36:23;13.79;28.10
72772;SHT30;60894;42.544;1.516;2022-12-10T13:39:11;13.77;26.20
72772;SHT30;60894;42.544;1.516;2022-12-10T13:41:41;13.58;28.09
72772;SHT30;60894;42.544;1.516;2022-12-10T13:44:36;14.07;27.76
72772;SHT30;60894;42.544;1.516;2022-12-10T13:50:17;14.65;30.65
72772;SHT30;60894;42.544;1.516;2022-12-10T13:52:54;14.91;28.81
72772;SHT30;60894;42.544;1.516;2022-12-10T13:55:30;14.74;28.77
72772;SHT30;60894;42.544;1.516;2022-12-10T13:58:27;14.78;28.92
72772;SHT30;60894;42.544;1.516;2022-12-10T14:01:02;14.98;27.43
72772;SHT30;60894;42.544;1.516;2022-12-10T14:03:47;14.63;27.64
72772;SHT30;60894;42.544;1.516;2022-12-10T14:06:19;14.60;27.99
72772;SHT30;60894;42.544;1.516;2022-12-10T14:08:54;14.18;28.29
72772;SHT30;60894;42.544;1.516;2022-12-10T14:11:24;14.12;27.25
72772;SHT30;60894;42.544;1.516;2022-12-10T14:13:55;13.44;28.50
72772;SHT30;60894;42.544;1.516;2022-12-10T14:16:26;11.24;29.56
72772;SHT30;60894;42.544;1.516;2022-12-10T14:18:56;10.28;32.07
72772;SHT30;60894;42.544;1.516;2022-12-10T14:21:25;9.80;33.31
72772;SHT30;60894;42.544;1.516;2022-12-10T14:23:53;9.77;35.71
72772;SHT30;60894;42.544;1.516;2022-12-10T14:26:22;9.66;34.55
72772;SHT30;60894;42.544;1.516;2022-12-10T14:28:56;9.42;36.94
72772;SHT30;60894;42.544;1.516;2022-12-10T14:31:27;8.89;36.84
72772;SHT30;60894;42.544;1.516;2022-12-10T14:33:59;8.92;38.26
72772;SHT30;60894;42.544;1.516;2022-12-10T14:36:30;8.87;38.04
72772;SHT30;60894;42.544;1.516;2022-12-10T14:38:59;8.89;38.01
72772;SHT30;60894;42.544;1.516;2022-12-10T14:41:28;8.63;40.23
72772;SHT30;60894;42.544;1.516;2022-12-10T14:43:58;8.26;40.67
72772;SHT30;60894;42.544;1.516;2022-12-10T14:46:30;8.17;41.70
72772;SHT30;60894;42.544;1.516;2022-12-10T14:48:58;8.03;41.54
72772;SHT30;60894;42.544;1.516;2022-12-10T14:51:32;7.77;40.42
72772;SHT30;60894;42.544;1.516;2022-12-10T14:53:59;7.77;40.51
72772;SHT30;60894;42.544;1.516;2022-12-10T14:56:29;7.72;41.29
72772;SHT30;60894;42.544;1.516;2022-12-10T14:59:02;7.47;41.42
72772;SHT30;60894;42.544;1.516;2022-12-10T15:01:33;6.92;41.17
72772;SHT30;60894;42.544;1.516;2022-12-10T15:04:03;7.11;42.95
72772;SHT30;60894;42.544;1.516;2022-12-10T15:06:35;6.95;42.71
72772;SHT30;60894;42.544;1.516;2022-12-10T15:09:05;6.76;42.37
72772;SHT30;60894;42.544;1.516;2022-12-10T15:11:32;6.64;43.07
72772;SHT30;60894;42.544;1.516;2022-12-10T15:14:01;6.66;43.07
72772;SHT30;60894;42.544;1.516;2022-12-10T15:16:37;6.72;45.18
72772;SHT30;60894;42.544;1.516;2022-12-10T15:19:13;6.44;45.57
72772;SHT30;60894;42.544;1.516;2022-12-10T15:21:45;6.35;41.47
72772;SHT30;60894;42.544;1.516;2022-12-10T15:24:16;6.34;44.19
72772;SHT30;60894;42.544;1.516;2022-12-10T15:26:45;6.48;47.21
72772;SHT30;60894;42.544;1.516;2022-12-10T15:29:33;6.38;45.53
72772;SHT30;60894;42.544;1.516;2022-12-10T15:32:04;6.25;43.53
72772;SHT30;60894;42.544;1.516;2022-12-10T15:34:39;5.97;43.63
72772;SHT30;60894;42.544;1.516;2022-12-10T15:37:15;6.04;46.68
72772;SHT30;60894;42.544;1.516;2022-12-10T15:39:46;6.03;46.35
72772;SHT30;60894;42.544;1.516;2022-12-10T15:42:29;5.85;47.86
72772;SHT30;60894;42.544;1.516;2022-12-10T15:44:59;5.83;48.11
72772;SHT30;60894;42.544;1.516;2022-12-10T15:47:27;5.87;47.25
72772;SHT30;60894;42.544;1.516;2022-12-10T15:49:55;5.87;46.20
72772;SHT30;60894;42.544;1.516;2022-12-10T15:52:26;5.81;46.53
72772;SHT30;60894;42.544;1.516;2022-12-10T15:54:54;5.78;48.34
72772;SHT30;60894;42.544;1.516;2022-12-10T15:57:23;5.83;53.10
72772;SHT30;60894;42.544;1.516;2022-12-10T15:59:52;5.69;48.63
72772;SHT30;60894;42.544;1.516;2022-12-10T16:02:29;5.57;47.69
72772;SHT30;60894;42.544;1.516;2022-12-10T16:04:59;5.53;48.13
72772;SHT30;60894;42.544;1.516;2022-12-10T16:07:28;5.49;47.47
72772;SHT30;60894;42.544;1.516;2022-12-10T16:09:55;5.31;48.13
72772;SHT30;60894;42.544;1.516;2022-12-10T16:12:22;5.32;48.88
72772;SHT30;60894;42.544;1.516;2022-12-10T16:14:50;5.18;49.48